Time;durP1;ratioP1;P1;durP2;ratioP2;P2;SDS_P1;SDS_P2;PMS_P1;PMS_P2;Temp;Humidity;BMP_temperature;BMP_pressure;BME280_temperature;BME280_humidity;BME280_pressure;Samples;Min_cycle;Max_cycle;Signal;HPM_P1;HPM_P2
2021/09/10 00:01:03;;;;;;;12.20;9.33;;;19.10;99.90;;;;;;5059775;28;20187;-71
2021/09/10 00:03:29;;;;;;;10.13;7.67;;;19.10;99.90;;;;;;5065028;28;20205;-71
2021/09/10 00:05:54;;;;;;;9.43;8.47;;;19.10;99.90;;;;;;5073478;28;20204;-71
2021/09/10 00:08:20;;;;;;;12.63;9.43;;;19.10;99.90;;;;;;5072173;28;20163;-71
2021/09/10 00:10:46;;;;;;;10.70;9.10;;;19.10;99.90;;;;;;5070624;28;20180;-71
2021/09/10 00:13:11;;;;;;;11.20;9.37;;;19.00;99.90;;;;;;5073195;28;20965;-71
2021/09/10 00:15:37;;;;;;;12.53;8.73;;;19.00;99.90;;;;;;5073553;28;20647;-71
2021/09/10 00:18:03;;;;;;;9.83;8.80;;;19.00;99.90;;;;;;5063722;28;20258;-71
2021/09/10 00:20:28;;;;;;;12.17;10.13;;;19.00;99.90;;;;;;5062439;28;20176;-71
2021/09/10 00:22:54;;;;;;;11.50;9.40;;;19.00;99.90;;;;;;5053207;28;20221;-71
2021/09/10 00:25:19;;;;;;;11.63;8.90;;;18.90;99.90;;;;;;5066092;28;20179;-71
2021/09/10 00:27:45;;;;;;;10.20;8.73;;;19.00;99.90;;;;;;5073001;28;20179;-71
2021/09/10 00:30:11;;;;;;;9.20;8.27;;;18.90;99.90;;;;;;5066326;28;20186;-72
2021/09/10 00:32:36;;;;;;;11.03;9.60;;;19.00;99.90;;;;;;5073013;28;20167;-71
2021/09/10 00:35:04;;;;;;;13.53;10.10;;;19.00;99.90;;;;;;5072426;28;20413;-71
2021/09/10 00:37:30;;;;;;;21.40;11.93;;;19.00;99.90;;;;;;5072279;28;20699;-71
2021/09/10 00:39:55;;;;;;;19.90;12.70;;;19.00;99.90;;;;;;5066170;28;20818;-71
2021/09/10 00:42:21;;;;;;;32.03;18.23;;;19.10;99.90;;;;;;5071696;28;20421;-71
2021/09/10 00:44:47;;;;;;;29.93;18.57;;;19.10;99.90;;;;;;5072975;28;20152;-71
2021/09/10 00:47:13;;;;;;;17.40;11.87;;;19.10;99.90;;;;;;5073018;28;20224;-71
2021/09/10 00:49:39;;;;;;;23.20;15.57;;;19.10;99.90;;;;;;5072802;28;20237;-71
2021/09/10 00:52:05;;;;;;;27.90;17.03;;;19.10;99.90;;;;;;5061612;28;20495;-71
2021/09/10 00:54:31;;;;;;;20.50;14.27;;;19.10;99.90;;;;;;5053297;28;20490;-71
2021/09/10 00:56:59;;;;;;;15.50;11.10;;;19.10;99.90;;;;;;5052690;28;20172;-71
2021/09/10 00:59:25;;;;;;;11.20;9.33;;;19.10;99.90;;;;;;5052769;28;20653;-71
2021/09/10 01:01:51;;;;;;;11.17;9.70;;;19.10;99.90;;;;;;5066042;28;20432;-71
2021/09/10 01:04:19;;;;;;;16.33;10.73;;;19.10;99.90;;;;;;5072792;28;20217;-71
2021/09/10 01:06:45;;;;;;;13.60;10.50;;;19.10;99.90;;;;;;5072577;28;20475;-71
2021/09/10 01:09:11;;;;;;;14.20;11.33;;;19.10;99.90;;;;;;5061837;28;20417;-71
2021/09/10 01:11:38;;;;;;;14.23;11.57;;;19.10;99.90;;;;;;5064230;28;20784;-71
2021/09/10 01:14:04;;;;;;;13.27;9.23;;;19.10;99.90;;;;;;5072607;28;20585;-71
2021/09/10 01:16:30;;;;;;;11.63;8.77;;;19.10;99.90;;;;;;5072532;28;20406;-71
2021/09/10 01:18:55;;;;;;;32.13;18.40;;;19.10;99.90;;;;;;5072759;28;20389;-71
2021/09/10 01:21:21;;;;;;;31.07;18.00;;;19.10;99.90;;;;;;5065578;28;20622;-71
2021/09/10 01:23:46;;;;;;;28.73;16.90;;;19.10;99.90;;;;;;5072555;28;20173;-72
2021/09/10 01:26:12;;;;;;;21.90;13.73;;;19.10;99.90;;;;;;5069841;28;20625;-71
2021/09/10 01:28:38;;;;;;;18.00;13.80;;;19.10;99.90;;;;;;5071593;28;20175;-71
2021/09/10 01:31:03;;;;;;;24.10;13.03;;;19.20;99.90;;;;;;5071218;28;20195;-72
2021/09/10 01:33:29;;;;;;;18.53;10.67;;;19.10;99.90;;;;;;5065964;28;20286;-72
2021/09/10 01:35:54;;;;;;;15.93;12.20;;;19.20;99.90;;;;;;5071261;28;20179;-72
2021/09/10 01:38:20;;;;;;;13.60;9.53;;;19.10;99.90;;;;;;5055581;28;20176;-72
2021/09/10 01:40:46;;;;;;;10.93;8.50;;;19.20;99.90;;;;;;5053075;28;20637;-71
2021/09/10 01:43:12;;;;;;;12.50;9.63;;;19.20;99.90;;;;;;5063061;28;20632;-71
2021/09/10 01:45:38;;;;;;;12.33;8.97;;;19.10;99.90;;;;;;5071503;28;20263;-71
2021/09/10 01:48:03;;;;;;;15.90;10.60;;;19.20;99.90;;;;;;5057762;28;20513;-71
2021/09/10 01:50:29;;;;;;;17.97;11.00;;;19.20;99.90;;;;;;5052315;28;20187;-71
2021/09/10 01:52:55;;;;;;;20.23;13.50;;;19.10;99.90;;;;;;5051986;28;20207;-71
2021/09/10 01:55:20;;;;;;;21.47;14.17;;;19.10;99.90;;;;;;5052445;28;20176;-71
2021/09/10 01:57:48;;;;;;;20.90;13.67;;;19.10;99.90;;;;;;5052098;28;20183;-71
2021/09/10 02:00:15;;;;;;;28.57;16.17;;;19.10;99.90;;;;;;5062933;28;20448;-71
2021/09/10 02:02:41;;;;;;;33.80;19.83;;;19.10;99.90;;;;;;5057743;28;20418;-71
2021/09/10 02:05:09;;;;;;;27.03;16.57;;;19.10;99.90;;;;;;5055829;28;20754;-71
2021/09/10 02:07:35;;;;;;;23.30;15.87;;;19.00;99.90;;;;;;5055705;28;20187;-71
2021/09/10 02:10:01;;;;;;;17.27;12.67;;;19.00;99.90;;;;;;5055695;28;20759;-71
2021/09/10 02:12:26;;;;;;;16.00;12.67;;;19.00;99.90;;;;;;5060375;28;20422;-71
2021/09/10 02:14:53;;;;;;;11.03;8.80;;;18.90;99.90;;;;;;5055506;28;20192;-71
2021/09/10 02:17:19;;;;;;;11.70;7.70;;;18.90;99.90;;;;;;5056173;28;20172;-71
2021/09/10 02:19:45;;;;;;;8.90;8.00;;;18.90;99.90;;;;;;5068390;28;20418;-71
2021/09/10 02:22:10;;;;;;;8.53;7.63;;;18.90;99.90;;;;;;5063291;28;20195;-71
2021/09/10 02:24:36;;;;;;;11.07;8.17;;;18.80;99.90;;;;;;5055449;28;20214;-71
2021/09/10 02:27:01;;;;;;;8.90;8.00;;;18.80;99.90;;;;;;5058249;28;20179;-71
2021/09/10 02:29:27;;;;;;;12.70;8.13;;;18.80;99.90;;;;;;5075401;28;20152;-71
2021/09/10 02:31:52;;;;;;;10.53;9.13;;;18.70;99.90;;;;;;5074388;28;20182;-71
2021/09/10 02:34:18;;;;;;;9.17;7.43;;;18.70;99.90;;;;;;5074348;28;20206;-71
2021/09/10 02:36:44;;;;;;;11.27;8.43;;;18.60;99.90;;;;;;5074461;28;20179;-71
2021/09/10 02:39:11;;;;;;;9.70;8.17;;;18.60;99.90;;;;;;5075423;28;20158;-71
2021/09/10 02:41:38;;;;;;;10.00;8.67;;;18.60;99.90;;;;;;5062806;28;20187;-71
2021/09/10 02:44:05;;;;;;;13.80;9.90;;;18.60;99.90;;;;;;5054993;28;20409;-71
2021/09/10 02:46:30;;;;;;;15.47;10.97;;;18.50;99.90;;;;;;5055047;28;20402;-71
2021/09/10 02:48:56;;;;;;;14.43;10.40;;;18.50;99.90;;;;;;5054984;28;20941;-71
2021/09/10 02:51:22;;;;;;;15.20;10.27;;;18.50;99.90;;;;;;5064038;28;20529;-71
2021/09/10 02:53:47;;;;;;;19.83;10.80;;;18.40;99.90;;;;;;5060191;28;20214;-71
2021/09/10 02:56:13;;;;;;;18.10;12.97;;;18.40;99.90;;;;;;5054887;28;20157;-71
2021/09/10 02:58:39;;;;;;;15.33;11.40;;;18.40;99.90;;;;;;5055344;28;20198;-71
2021/09/10 03:01:04;;;;;;;15.77;11.23;;;18.30;99.90;;;;;;5060749;28;20553;-71
2021/09/10 03:03:30;;;;;;;11.07;9.33;;;18.30;99.90;;;;;;5074710;28;20209;-71
2021/09/10 03:05:56;;;;;;;14.87;10.60;;;18.30;99.90;;;;;;5074546;28;20172;-71
2021/09/10 03:08:22;;;;;;;13.13;9.80;;;18.30;99.90;;;;;;5062355;28;20206;-71
2021/09/10 03:10:49;;;;;;;14.90;11.03;;;18.30;99.90;;;;;;5054578;28;20487;-71
2021/09/10 03:13:15;;;;;;;12.53;9.33;;;18.20;99.90;;;;;;5054395;28;20457;-71
2021/09/10 03:15:40;;;;;;;10.60;8.00;;;18.20;99.90;;;;;;5054503;28;20776;-71
2021/09/10 03:18:06;;;;;;;12.40;8.87;;;18.20;99.90;;;;;;5054701;28;20301;-71
2021/09/10 03:20:31;;;;;;;11.00;8.40;;;18.20;99.90;;;;;;5054207;28;20184;-71
2021/09/10 03:22:57;;;;;;;9.70;8.40;;;18.10;99.90;;;;;;5074158;28;20186;-71
2021/09/10 03:25:22;;;;;;;11.00;8.90;;;18.10;99.90;;;;;;5061360;28;20221;-71
2021/09/10 03:27:48;;;;;;;9.17;8.17;;;18.10;99.90;;;;;;5065147;28;20183;-71
2021/09/10 03:30:14;;;;;;;8.80;7.90;;;18.10;99.90;;;;;;5071680;28;20166;-71
2021/09/10 03:32:41;;;;;;;10.90;7.97;;;18.10;99.90;;;;;;5054497;28;20183;-71
2021/09/10 03:35:07;;;;;;;12.13;8.87;;;18.10;99.90;;;;;;5066766;28;20221;-71
2021/09/10 03:37:32;;;;;;;11.23;7.90;;;18.00;99.90;;;;;;5073964;28;20744;-71
2021/09/10 03:39:58;;;;;;;12.13;7.93;;;18.00;99.90;;;;;;5073910;28;20396;-71
2021/09/10 03:42:24;;;;;;;9.70;7.47;;;18.00;99.90;;;;;;5072100;28;20179;-71
2021/09/10 03:44:50;;;;;;;12.53;10.97;;;18.00;99.90;;;;;;5062469;28;20217;-71
2021/09/10 03:47:15;;;;;;;9.80;8.90;;;18.00;99.90;;;;;;5053872;28;20626;-71
2021/09/10 03:49:41;;;;;;;11.33;7.93;;;18.00;99.90;;;;;;5053851;28;20206;-71
2021/09/10 03:52:06;;;;;;;11.50;10.03;;;18.00;99.90;;;;;;5065012;28;20194;-71
2021/09/10 03:54:32;;;;;;;11.70;9.50;;;18.00;99.90;;;;;;5066212;28;20334;-72
2021/09/10 03:56:58;;;;;;;11.93;9.00;;;18.00;99.90;;;;;;5053860;28;20164;-71
2021/09/10 03:59:23;;;;;;;10.20;8.87;;;17.90;99.90;;;;;;5065870;28;20233;-71
2021/09/10 04:01:49;;;;;;;12.57;9.40;;;18.00;99.90;;;;;;5058265;28;20786;-71
2021/09/10 04:04:15;;;;;;;10.30;9.00;;;17.90;99.90;;;;;;5053404;28;20184;-72
2021/09/10 04:06:41;;;;;;;11.80;9.33;;;17.90;99.90;;;;;;5053650;28;20410;-71
2021/09/10 04:09:06;;;;;;;11.50;9.80;;;17.90;99.90;;;;;;5053308;28;20164;-71
2021/09/10 04:11:32;;;;;;;10.50;8.53;;;17.90;99.90;;;;;;5053154;28;20177;-71
2021/09/10 04:13:58;;;;;;;10.10;8.37;;;17.90;99.90;;;;;;5053193;28;20715;-71
2021/09/10 04:16:23;;;;;;;16.53;10.80;;;17.90;99.90;;;;;;5054074;28;20632;-71
2021/09/10 04:18:49;;;;;;;10.00;8.10;;;17.90;99.90;;;;;;5053691;28;20411;-71
2021/09/10 04:21:14;;;;;;;11.13;9.70;;;17.90;99.90;;;;;;5052902;28;20257;-71
2021/09/10 04:23:40;;;;;;;13.70;11.07;;;17.90;99.90;;;;;;5070931;28;20167;-71
2021/09/10 04:26:06;;;;;;;12.10;9.60;;;17.90;99.90;;;;;;5057435;28;20599;-71
2021/09/10 04:28:31;;;;;;;11.43;8.33;;;17.80;99.90;;;;;;5053518;28;20755;-71
2021/09/10 04:30:57;;;;;;;10.73;9.50;;;17.90;99.90;;;;;;5054335;28;20266;-71
2021/09/10 04:33:23;;;;;;;10.77;8.30;;;17.80;99.90;;;;;;5064806;28;20284;-71
2021/09/10 04:35:48;;;;;;;15.27;10.47;;;17.80;99.90;;;;;;5070755;28;20170;-71
2021/09/10 04:38:14;;;;;;;11.30;9.27;;;17.80;99.90;;;;;;5071200;28;20179;-71
2021/09/10 04:40:40;;;;;;;10.00;8.13;;;17.80;99.90;;;;;;5070299;28;20183;-71
2021/09/10 04:43:06;;;;;;;12.60;8.90;;;17.80;99.90;;;;;;5073206;28;20250;-71
2021/09/10 04:45:31;;;;;;;9.13;8.10;;;17.80;99.90;;;;;;5054392;28;20866;-71
2021/09/10 04:47:57;;;;;;;11.00;9.90;;;17.80;99.90;;;;;;5052937;28;20164;-71
2021/09/10 04:50:22;;;;;;;13.90;9.80;;;17.80;99.90;;;;;;5063213;28;20194;-71
2021/09/10 04:52:48;;;;;;;12.67;9.00;;;17.80;99.90;;;;;;5051638;28;20645;-71
2021/09/10 04:55:14;;;;;;;10.40;8.53;;;17.80;99.90;;;;;;5050645;28;20157;-71
2021/09/10 04:57:40;;;;;;;10.10;9.10;;;17.80;99.90;;;;;;5051160;28;20168;-71
2021/09/10 05:00:07;;;;;;;9.77;8.73;;;17.80;99.90;;;;;;5051047;28;20708;-71
2021/09/10 05:02:32;;;;;;;10.80;9.70;;;17.80;99.90;;;;;;5068680;28;20447;-71
2021/09/10 05:04:58;;;;;;;12.37;9.17;;;17.80;99.90;;;;;;5070605;28;20416;-71
2021/09/10 05:07:24;;;;;;;11.50;8.43;;;17.80;99.90;;;;;;5057986;28;20175;-71
2021/09/10 05:09:50;;;;;;;10.60;8.87;;;17.80;99.90;;;;;;5060880;28;20256;-71
2021/09/10 05:12:15;;;;;;;11.13;8.83;;;17.80;99.90;;;;;;5056524;28;20194;-71
2021/09/10 05:14:41;;;;;;;9.83;8.80;;;17.80;99.90;;;;;;5052659;28;20447;-72
2021/09/10 05:17:07;;;;;;;10.53;9.43;;;17.80;99.90;;;;;;5052583;28;20154;-72
2021/09/10 05:19:33;;;;;;;11.13;9.13;;;17.80;99.90;;;;;;5052503;28;20400;-72
2021/09/10 05:21:59;;;;;;;11.03;8.17;;;17.90;99.90;;;;;;5064113;28;20201;-72
2021/09/10 05:24:24;;;;;;;11.60;9.17;;;17.90;99.90;;;;;;5072393;28;20418;-72
2021/09/10 05:26:50;;;;;;;8.93;8.03;;;18.00;99.90;;;;;;5072069;28;20179;-72
2021/09/10 05:29:15;;;;;;;11.53;8.90;;;18.00;99.90;;;;;;5072707;28;20183;-72
2021/09/10 05:31:41;;;;;;;9.20;8.20;;;18.00;99.90;;;;;;5060617;28;20560;-72
2021/09/10 05:34:07;;;;;;;10.80;8.20;;;18.00;99.90;;;;;;5072083;28;20188;-72
2021/09/10 05:36:32;;;;;;;8.43;7.63;;;18.10;99.90;;;;;;5065418;28;20176;-72
2021/09/10 05:38:58;;;;;;;10.00;8.43;;;18.10;99.90;;;;;;5065145;28;20176;-72
2021/09/10 05:41:24;;;;;;;9.27;7.60;;;18.10;99.90;;;;;;5057256;28;20176;-72
2021/09/10 05:43:49;;;;;;;8.80;6.70;;;18.10;99.90;;;;;;5063812;28;20680;-72
2021/09/10 05:46:15;;;;;;;9.13;7.60;;;18.10;99.90;;;;;;5074014;28;20226;-72
2021/09/10 05:48:40;;;;;;;9.27;7.13;;;18.10;99.90;;;;;;5071407;28;20195;-72
2021/09/10 05:51:08;;;;;;;10.87;7.43;;;18.10;99.90;;;;;;5074782;28;20217;-72
2021/09/10 05:53:34;;;;;;;9.57;7.67;;;18.20;99.90;;;;;;5075431;28;20241;-72
2021/09/10 05:55:59;;;;;;;10.10;7.97;;;18.20;99.90;;;;;;5074454;28;20433;-72
2021/09/10 05:58:25;;;;;;;7.17;6.50;;;18.20;99.90;;;;;;5065138;28;20175;-72
2021/09/10 06:00:50;;;;;;;9.10;7.77;;;18.20;99.90;;;;;;5058367;28;20174;-72
2021/09/10 06:03:16;;;;;;;8.07;7.27;;;18.30;99.90;;;;;;5063787;28;20187;-71
2021/09/10 06:05:42;;;;;;;7.40;6.63;;;18.30;99.90;;;;;;5075069;28;20183;-72
2021/09/10 06:08:07;;;;;;;9.27;7.37;;;18.30;99.90;;;;;;5064248;28;20182;-71
2021/09/10 06:10:33;;;;;;;8.20;7.43;;;18.40;99.90;;;;;;5066330;28;20182;-72
2021/09/10 06:12:59;;;;;;;9.87;8.03;;;18.40;99.90;;;;;;5074182;28;20701;-72
2021/09/10 06:15:24;;;;;;;8.60;7.00;;;18.50;99.90;;;;;;5061508;28;20237;-72
2021/09/10 06:17:50;;;;;;;7.70;6.87;;;18.50;99.90;;;;;;5060851;28;20175;-72
2021/09/10 06:20:15;;;;;;;8.10;7.30;;;18.60;99.90;;;;;;5053376;28;20173;-72
2021/09/10 06:22:41;;;;;;;8.00;6.07;;;18.60;99.90;;;;;;5058532;28;20229;-72
2021/09/10 06:25:09;;;;;;;7.30;6.60;;;18.60;99.90;;;;;;5055180;28;20171;-72
2021/09/10 06:27:36;;;;;;;7.13;6.13;;;18.70;99.90;;;;;;5065197;28;20172;-72
2021/09/10 06:30:02;;;;;;;8.30;6.00;;;18.70;99.90;;;;;;5056894;28;20436;-72
2021/09/10 06:32:28;;;;;;;6.80;6.20;;;18.70;99.90;;;;;;5053813;28;20421;-72
2021/09/10 06:34:53;;;;;;;7.00;6.33;;;18.80;99.90;;;;;;5068977;28;20984;-72
2021/09/10 06:37:20;;;;;;;8.13;6.67;;;18.80;99.90;;;;;;5072971;28;20383;-72
2021/09/10 06:39:47;;;;;;;7.20;5.83;;;18.90;99.90;;;;;;5073367;28;20217;-72
2021/09/10 06:42:13;;;;;;;6.13;5.53;;;18.90;99.90;;;;;;5066213;28;20973;-72
2021/09/10 06:44:39;;;;;;;7.87;6.20;;;18.90;99.90;;;;;;5061735;28;20853;-72
2021/09/10 06:47:04;;;;;;;6.20;5.60;;;19.00;99.90;;;;;;5062233;28;20428;-72
2021/09/10 06:49:30;;;;;;;7.90;6.13;;;19.00;99.90;;;;;;5073138;28;20186;-72
2021/09/10 06:51:56;;;;;;;7.73;6.37;;;19.10;99.90;;;;;;5073011;28;20179;-72
2021/09/10 06:54:21;;;;;;;6.20;5.60;;;19.10;99.90;;;;;;5064750;28;20298;-72
2021/09/10 06:56:47;;;;;;;5.53;4.93;;;19.20;99.90;;;;;;5055103;28;20226;-72
2021/09/10 06:59:16;;;;;;;6.87;5.70;;;19.20;99.90;;;;;;5055204;28;20192;-72
2021/09/10 07:01:43;;;;;;;6.63;6.03;;;19.20;99.90;;;;;;5054363;28;20176;-72
2021/09/10 07:04:08;;;;;;;5.33;4.83;;;19.30;99.90;;;;;;5060227;28;20441;-72
2021/09/10 07:06:34;;;;;;;5.83;4.83;;;19.30;99.90;;;;;;5057425;28;20430;-72
2021/09/10 07:09:00;;;;;;;5.60;4.90;;;19.40;99.90;;;;;;5058659;28;20172;-72
2021/09/10 07:11:25;;;;;;;5.63;5.13;;;19.50;99.90;;;;;;5073095;28;20644;-72
2021/09/10 07:13:51;;;;;;;6.10;5.47;;;19.50;99.90;;;;;;5064501;28;20207;-72
2021/09/10 07:16:16;;;;;;;5.10;4.60;;;19.60;99.90;;;;;;5070763;28;20236;-72
2021/09/10 07:18:42;;;;;;;5.87;5.37;;;19.60;99.90;;;;;;5074171;28;20194;-72
2021/09/10 07:21:08;;;;;;;7.13;5.27;;;19.70;99.90;;;;;;5071539;28;20186;-72
2021/09/10 07:23:34;;;;;;;6.43;5.83;;;19.80;99.90;;;;;;5065784;28;20522;-72
2021/09/10 07:26:03;;;;;;;6.67;5.10;;;19.80;99.90;;;;;;5068615;28;20654;-72
2021/09/10 07:28:30;;;;;;;6.70;4.83;;;19.90;99.90;;;;;;5059127;28;20589;-72
2021/09/10 07:30:56;;;;;;;7.00;4.23;;;20.00;99.90;;;;;;5067255;28;20423;-72
2021/09/10 07:33:21;;;;;;;8.00;4.90;;;20.20;99.90;;;;;;5060289;28;21037;-72
2021/09/10 07:35:47;;;;;;;5.10;4.60;;;20.40;99.90;;;;;;5071907;28;20179;-72
2021/09/10 07:38:13;;;;;;;5.00;4.57;;;20.50;99.90;;;;;;5060905;28;20270;-72
2021/09/10 07:40:38;;;;;;;5.40;4.33;;;20.60;99.90;;;;;;5058643;28;20230;-72
2021/09/10 07:43:04;;;;;;;5.97;5.13;;;20.70;99.90;;;;;;5055828;28;20369;-72
2021/09/10 07:45:30;;;;;;;5.83;4.90;;;20.80;99.90;;;;;;5062022;28;20526;-72
2021/09/10 07:47:55;;;;;;;5.07;4.60;;;20.90;99.90;;;;;;5073649;28;20238;-72
2021/09/10 07:50:21;;;;;;;5.73;5.07;;;21.00;99.90;;;;;;5070501;28;20170;-72
2021/09/10 07:52:46;;;;;;;5.90;4.77;;;21.00;99.90;;;;;;5071518;28;20286;-73
2021/09/10 07:55:12;;;;;;;7.30;4.20;;;21.20;99.90;;;;;;5073495;28;20152;-73
2021/09/10 07:57:37;;;;;;;4.33;3.93;;;21.20;99.90;;;;;;5058078;28;20175;-73
2021/09/10 08:00:04;;;;;;;6.30;4.50;;;21.30;99.90;;;;;;5053309;28;20717;-72
2021/09/10 08:02:30;;;;;;;4.43;4.03;;;21.40;99.90;;;;;;5064709;28;20184;-72
2021/09/10 08:04:56;;;;;;;5.23;4.47;;;21.60;99.90;;;;;;5073148;28;20405;-72
2021/09/10 08:07:22;;;;;;;3.27;2.97;;;21.70;99.90;;;;;;5068902;28;20179;-73
2021/09/10 08:09:48;;;;;;;6.20;3.70;;;21.70;99.90;;;;;;5055317;28;20528;-73
2021/09/10 08:12:13;;;;;;;6.93;4.20;;;21.80;99.90;;;;;;5065590;28;20183;-72
2021/09/10 08:14:39;;;;;;;4.47;3.33;;;21.90;99.90;;;;;;5065323;28;20669;-72
2021/09/10 08:17:05;;;;;;;6.20;4.53;;;22.00;99.90;;;;;;5055309;28;20231;-72
2021/09/10 08:19:30;;;;;;;6.53;4.23;;;22.10;99.90;;;;;;5062186;28;20164;-72
2021/09/10 08:21:56;;;;;;;4.07;3.67;;;22.20;99.90;;;;;;5055028;28;20703;-72
2021/09/10 08:24:21;;;;;;;5.90;4.60;;;22.20;99.90;;;;;;5060994;28;20261;-72
2021/09/10 08:26:47;;;;;;;4.40;4.00;;;22.30;99.90;;;;;;5056286;28;20172;-72
2021/09/10 08:29:13;;;;;;;3.67;3.00;;;22.40;99.90;;;;;;5055789;28;20193;-72
2021/09/10 08:31:38;;;;;;;4.03;3.70;;;22.40;99.90;;;;;;5062319;28;20187;-72
2021/09/10 08:34:05;;;;;;;3.47;3.17;;;22.50;99.90;;;;;;5062031;28;20203;-72
2021/09/10 08:36:32;;;;;;;3.97;3.30;;;22.60;99.90;;;;;;5069896;28;20247;-72
2021/09/10 08:38:58;;;;;;;4.07;3.67;;;22.60;99.90;;;;;;5073469;28;20469;-72
2021/09/10 08:41:26;;;;;;;3.30;3.00;;;22.70;99.90;;;;;;5075429;28;20914;-72
2021/09/10 08:43:53;;;;;;;3.33;2.67;;;22.80;99.90;;;;;;5058734;28;20407;-72
2021/09/10 08:46:19;;;;;;;4.27;2.80;;;22.90;99.90;;;;;;5054601;28;20410;-72
2021/09/10 08:48:46;;;;;;;3.57;2.50;;;23.00;99.90;;;;;;5063388;28;20914;-72
2021/09/10 08:51:13;;;;;;;3.43;2.40;;;23.10;99.90;;;;;;5059427;28;20175;-72
2021/09/10 08:53:39;;;;;;;3.10;2.53;;;23.20;99.90;;;;;;5052674;28;20449;-72
2021/09/10 08:56:05;;;;;;;3.20;2.47;;;23.20;99.90;;;;;;5067043;28;20425;-72
2021/09/10 08:58:30;;;;;;;3.03;2.80;;;23.30;99.90;;;;;;5072573;28;20441;-71
2021/09/10 09:01:00;;;;;;;4.53;3.30;;;23.30;99.90;;;;;;5052184;28;20419;-71
2021/09/10 09:03:28;;;;;;;3.40;2.67;;;23.40;99.90;;;;;;5053547;28;20536;-72
2021/09/10 09:05:54;;;;;;;3.10;2.40;;;23.50;99.90;;;;;;5061877;28;20834;-72
2021/09/10 09:08:19;;;;;;;2.57;2.10;;;23.50;99.90;;;;;;5064883;28;20417;-72
2021/09/10 09:13:30;;;;;;;3.00;2.63;;;23.50;99.90;;;;;;5070181;28;20554;-71
2021/09/10 09:16:17;;;;;;;3.00;2.70;;;23.60;99.90;;;;;;5068767;28;20386;-72
2021/09/10 09:18:49;;;;;;;6.10;3.10;;;23.70;99.90;;;;;;5058338;28;20398;-72
2021/09/10 09:21:20;;;;;;;3.47;2.70;;;23.80;99.90;;;;;;5052858;28;20935;-72
2021/09/10 09:23:46;;;;;;;2.43;2.20;;;23.80;99.90;;;;;;5049974;28;20398;-72
2021/09/10 09:26:14;;;;;;;2.83;2.63;;;23.80;99.90;;;;;;5057235;28;20449;-72
2021/09/10 09:28:40;;;;;;;2.60;2.40;;;23.70;99.90;;;;;;5051980;28;20171;-72
2021/09/10 09:31:09;;;;;;;3.20;2.70;;;23.80;99.90;;;;;;5047984;28;20433;-72
2021/09/10 09:33:40;;;;;;;5.83;2.80;;;24.00;99.90;;;;;;5050072;28;20179;-71
2021/09/10 09:36:10;;;;;;;5.80;2.90;;;24.30;99.90;;;;;;5049526;28;20414;-71
2021/09/10 09:38:37;;;;;;;5.00;2.27;;;24.60;99.90;;;;;;5052680;28;20434;-72
2021/09/10 09:41:07;;;;;;;2.87;2.43;;;24.80;99.90;;;;;;5051085;28;20410;-72
2021/09/10 09:43:34;;;;;;;3.63;3.20;;;25.00;99.90;;;;;;5050827;28;20764;-72
2021/09/10 09:46:01;;;;;;;4.20;3.60;;;25.20;99.90;;;;;;5055842;28;20471;-72
2021/09/10 09:48:28;;;;;;;3.37;2.80;;;25.30;99.90;;;;;;5045475;28;20442;-72
2021/09/10 09:50:58;;;;;;;3.90;3.33;;;25.20;99.90;;;;;;5047966;28;20460;-72
2021/09/10 09:53:23;;;;;;;6.07;3.67;;;25.00;99.90;;;;;;5031629;28;20451;-72
2021/09/10 09:55:49;;;;;;;3.40;3.10;;;24.80;99.90;;;;;;5036290;28;20437;-72
2021/09/10 09:58:16;;;;;;;2.63;2.43;;;24.70;99.90;;;;;;5052755;28;20516;-72
2021/09/10 10:00:43;;;;;;;4.70;3.33;;;24.60;99.90;;;;;;5054196;28;20500;-72
2021/09/10 10:03:09;;;;;;;3.57;3.27;;;24.50;99.90;;;;;;5039538;28;20434;-72
2021/09/10 10:08:26;;;;;;;3.93;3.60;;;24.20;99.90;;;;;;5057430;28;20536;-72
2021/09/10 10:10:57;;;;;;;4.50;3.90;;;24.10;99.90;;;;;;5041727;28;20419;-72
2021/09/10 10:13:28;;;;;;;5.80;3.60;;;24.00;99.90;;;;;;5038322;28;20858;-72
2021/09/10 10:15:54;;;;;;;6.23;4.40;;;23.90;99.90;;;;;;5032103;28;20806;-72
2021/09/10 10:18:42;;;;;;;4.73;4.33;;;23.90;99.90;;;;;;5033123;28;20431;-72
2021/09/10 10:21:10;;;;;;;4.50;4.10;;;23.90;99.90;;;;;;5042377;28;20180;-72
2021/09/10 10:26:33;;;;;;;4.80;4.30;;;24.00;99.90;;;;;;5070055;28;21041;-72
2021/09/10 10:29:08;;;;;;;4.60;3.67;;;24.20;99.90;;;;;;5054174;28;20505;-72
2021/09/10 10:32:03;;;;;;;4.10;3.80;;;24.20;99.90;;;;;;5062832;28;20449;-72
2021/09/10 10:34:31;;;;;;;3.23;2.93;;;24.20;99.90;;;;;;5052600;28;20412;-72
2021/09/10 10:36:56;;;;;;;3.77;3.23;;;24.20;99.90;;;;;;5054039;28;20423;-72
2021/09/10 10:39:27;;;;;;;2.83;2.63;;;24.20;99.90;;;;;;5055486;28;20422;-72
2021/09/10 10:41:57;;;;;;;6.27;3.63;;;24.30;99.90;;;;;;5063751;28;20183;-72
2021/09/10 10:47:12;;;;;;;3.03;2.73;;;24.30;99.90;;;;;;5072375;28;20516;-72
2021/09/10 10:55:35;;;;;;;4.10;3.70;;;24.40;99.90;;;;;;5099024;27;21059;-72
2021/09/10 10:58:22;;;;;;;3.50;3.27;;;24.70;99.90;;;;;;5088711;28;20496;-72
2021/09/10 11:06:26;;;;;;;3.70;3.33;;;24.60;99.90;;;;;;5055575;28;20536;-72
2021/09/10 11:08:52;;;;;;;4.80;3.87;;;24.40;99.90;;;;;;5048452;28;20411;-72
2021/09/10 11:11:18;;;;;;;4.10;3.70;;;24.30;99.90;;;;;;5048693;28;20414;-73
2021/09/10 11:13:45;;;;;;;4.80;4.27;;;24.20;99.90;;;;;;5049892;28;20935;-73
2021/09/10 11:16:25;;;;;;;4.60;3.80;;;24.10;99.90;;;;;;5049199;28;20187;-73
2021/09/10 11:18:51;;;;;;;4.30;3.03;;;24.00;99.90;;;;;;5041811;28;20407;-73
2021/09/10 11:21:16;;;;;;;4.63;3.90;;;23.90;99.90;;;;;;5049016;28;20488;-73
2021/09/10 11:23:43;;;;;;;3.90;3.60;;;23.80;99.90;;;;;;5049663;28;20320;-73
2021/09/10 11:26:09;;;;;;;3.90;3.30;;;23.60;99.90;;;;;;5049681;28;20494;-73
2021/09/10 11:28:37;;;;;;;3.90;3.50;;;23.50;99.90;;;;;;5049205;28;20503;-73
2021/09/10 11:31:04;;;;;;;3.90;3.60;;;23.40;99.90;;;;;;5049074;28;20430;-73
2021/09/10 11:33:43;;;;;;;6.90;3.47;;;23.30;99.90;;;;;;5048797;28;20422;-73
2021/09/10 11:36:21;;;;;;;6.80;4.30;;;23.30;99.90;;;;;;5048078;28;20458;-73
2021/09/10 11:38:47;;;;;;;6.40;3.80;;;23.20;99.90;;;;;;5048669;28;20932;-73
2021/09/10 11:41:14;;;;;;;3.97;3.57;;;23.10;99.90;;;;;;5048715;28;20504;-73
2021/09/10 11:43:40;;;;;;;5.67;3.80;;;23.00;99.90;;;;;;5049518;28;20395;-73
2021/09/10 11:46:09;;;;;;;4.77;3.67;;;23.00;99.90;;;;;;5049828;28;20399;-73
2021/09/10 11:48:39;;;;;;;4.67;3.50;;;22.90;99.90;;;;;;5048963;28;20215;-73
2021/09/10 11:51:07;;;;;;;8.93;3.80;;;22.90;99.90;;;;;;5048382;28;20433;-73
2021/09/10 11:53:36;;;;;;;3.37;3.07;;;22.90;99.90;;;;;;5049174;28;20774;-73
2021/09/10 12:01:24;;;;;;;2.77;2.47;;;23.00;99.90;;;;;;5049142;28;20529;-71
2021/09/10 12:06:30;;;;;;;2.90;2.63;;;23.10;99.90;;;;;;5070146;28;20587;-72
2021/09/10 12:17:36;;;;;;;3.80;3.27;;;23.60;99.90;;;;;;5070314;28;20508;-72
2021/09/10 12:20:28;;;;;;;2.67;2.40;;;23.70;99.90;;;;;;5051668;28;20426;-72
2021/09/10 12:22:59;;;;;;;3.60;2.53;;;23.80;99.90;;;;;;5051005;28;20391;-72
2021/09/10 12:25:47;;;;;;;2.17;2.07;;;23.90;99.90;;;;;;5050679;28;20417;-72
2021/09/10 12:28:15;;;;;;;2.83;2.63;;;23.90;99.90;;;;;;5049948;28;20401;-72
2021/09/10 12:30:45;;;;;;;2.53;2.30;;;23.80;99.90;;;;;;5057090;28;20426;-72
2021/09/10 12:33:14;;;;;;;2.83;2.07;;;23.90;99.90;;;;;;5070079;28;20393;-72
2021/09/10 12:35:40;;;;;;;7.63;5.10;;;24.00;99.90;;;;;;5068210;28;20452;-73
2021/09/10 12:38:08;;;;;;;9.87;4.73;;;24.10;99.90;;;;;;5069911;28;20394;-72
2021/09/10 12:40:37;;;;;;;2.90;2.50;;;24.00;99.90;;;;;;5067920;28;20255;-72
2021/09/10 12:43:04;;;;;;;3.10;2.80;;;24.10;99.90;;;;;;5069467;28;20896;-72
2021/09/10 12:45:30;;;;;;;2.60;2.33;;;24.10;99.90;;;;;;5052665;28;20426;-72
2021/09/10 12:47:56;;;;;;;4.20;2.00;;;24.00;99.90;;;;;;5056955;28;20946;-72
2021/09/10 12:50:23;;;;;;;2.30;1.57;;;24.00;99.90;;;;;;5068416;28;20163;-72
2021/09/10 12:52:49;;;;;;;2.47;1.50;;;23.90;99.90;;;;;;5052480;28;20180;-72
2021/09/10 12:55:15;;;;;;;3.37;2.53;;;24.00;99.90;;;;;;5049826;28;20399;-72
2021/09/10 12:57:41;;;;;;;2.10;1.47;;;24.10;99.90;;;;;;5049909;28;20942;-72
2021/09/10 13:00:09;;;;;;;2.50;2.30;;;24.10;99.90;;;;;;5033270;28;20431;-72
2021/09/10 13:02:35;;;;;;;4.00;3.30;;;24.20;99.90;;;;;;5047660;28;20262;-72
2021/09/10 13:05:00;;;;;;;2.13;1.93;;;24.30;99.90;;;;;;5049511;28;20494;-72
2021/09/10 13:07:26;;;;;;;3.50;2.67;;;24.30;99.90;;;;;;5049739;28;20169;-72
2021/09/10 13:09:52;;;;;;;2.83;2.00;;;24.20;99.90;;;;;;5048894;28;20544;-72
2021/09/10 13:12:18;;;;;;;3.17;2.30;;;24.20;99.90;;;;;;5045965;28;20426;-72
2021/09/10 13:14:48;;;;;;;2.20;1.70;;;24.20;99.90;;;;;;5035002;28;20696;-72
2021/09/10 13:17:15;;;;;;;3.23;2.97;;;24.20;99.90;;;;;;5028103;28;20303;-72